Time;durP1;ratioP1;P1;durP2;ratioP2;P2;SDS_P1;SDS_P2;PMS_P1;PMS_P2;Temp;Humidity;BMP_temperature;BMP_pressure;BME280_temperature;BME280_humidity;BME280_pressure;Samples;Min_cycle;Max_cycle;Signal;HPM_P1;HPM_P2
2021/05/26 00:00:26;;;;;;;1.70;1.60;;;11.30;1.00;;;;;;5051510;28;20687;-53
2021/05/26 00:02:51;;;;;;;3.10;2.07;;;11.30;1.00;;;;;;5050390;28;20178;-54
2021/05/26 00:05:17;;;;;;;2.10;1.87;;;11.30;99.90;;;;;;5052240;28;20424;-50
2021/05/26 00:07:43;;;;;;;1.97;1.87;;;11.20;99.90;;;;;;5051237;28;20189;-51
2021/05/26 00:10:09;;;;;;;1.90;1.80;;;11.20;99.90;;;;;;5051888;28;20833;-50
2021/05/26 00:12:34;;;;;;;1.90;1.80;;;11.30;1.00;;;;;;5038452;28;20260;-52
2021/05/26 00:15:00;;;;;;;1.80;1.70;;;11.30;1.00;;;;;;5051555;28;20486;-53
2021/05/26 00:17:27;;;;;;;1.67;1.57;;;11.30;99.90;;;;;;5051363;28;20193;-57
2021/05/26 00:19:53;;;;;;;2.20;1.70;;;11.30;1.00;;;;;;5051827;28;20468;-53
2021/05/26 00:22:19;;;;;;;2.77;1.83;;;11.30;99.90;;;;;;5052087;28;20427;-51
2021/05/26 00:24:44;;;;;;;2.00;1.90;;;11.30;99.90;;;;;;5048094;28;20194;-52
2021/05/26 00:27:10;;;;;;;2.10;1.77;;;11.30;1.00;;;;;;5052055;28;20184;-56
2021/05/26 00:29:35;;;;;;;2.03;1.93;;;11.20;99.90;;;;;;5050276;28;20292;-53
2021/05/26 00:32:01;;;;;;;1.83;1.70;;;11.30;1.00;;;;;;5052152;28;20186;-51
2021/05/26 00:34:26;;;;;;;1.83;1.73;;;11.40;1.00;;;;;;5050102;28;20204;-53
2021/05/26 00:36:52;;;;;;;1.77;1.67;;;11.50;99.90;;;;;;5059345;28;20185;-52
2021/05/26 00:39:17;;;;;;;2.17;1.97;;;11.40;99.90;;;;;;5053954;28;20221;-50
2021/05/26 00:41:43;;;;;;;2.00;1.90;;;11.40;99.90;;;;;;5050784;28;20217;-49
2021/05/26 00:44:09;;;;;;;3.60;2.30;;;11.40;96.90;;;;;;5050871;28;20311;-51
2021/05/26 00:46:41;;;;;;;1.67;1.57;;;11.30;99.90;;;;;;5051940;28;20636;-54
2021/05/26 00:49:07;;;;;;;1.97;1.87;;;11.30;99.90;;;;;;5051210;28;20190;-54
2021/05/26 00:51:33;;;;;;;2.13;2.00;;;11.30;99.90;;;;;;5051374;28;20749;-54
2021/05/26 00:53:59;;;;;;;1.97;1.60;;;11.40;99.90;;;;;;5052457;28;20448;-53
2021/05/26 00:56:25;;;;;;;2.17;2.00;;;11.40;1.00;;;;;;5052638;28;20545;-51
2021/05/26 00:58:50;;;;;;;2.00;1.90;;;11.50;1.00;;;;;;5051931;28;20189;-52
2021/05/26 01:01:17;;;;;;;2.00;1.90;;;11.50;1.00;;;;;;5057496;28;20431;-54
2021/05/26 01:03:42;;;;;;;2.50;2.10;;;11.30;1.00;;;;;;5052742;28;20254;-52
2021/05/26 01:06:08;;;;;;;2.23;1.80;;;11.40;1.00;;;;;;5052960;28;20541;-53
2021/05/26 01:08:34;;;;;;;2.30;2.10;;;11.50;1.00;;;;;;5059931;28;20186;-51
2021/05/26 01:11:01;;;;;;;3.27;2.03;;;11.40;99.90;;;;;;5053329;28;20178;-54
2021/05/26 01:13:27;;;;;;;2.63;2.30;;;11.40;1.00;;;;;;5050784;28;20201;-52
2021/05/26 01:15:53;;;;;;;2.07;1.93;;;11.30;1.00;;;;;;5053043;28;21056;-50
2021/05/26 01:18:29;;;;;;;2.80;1.57;;;11.30;30.30;;;;;;5049973;28;20272;-53
2021/05/26 01:20:57;;;;;;;1.80;1.70;;;11.30;3.30;;;;;;5052203;28;20194;-53
2021/05/26 01:23:23;;;;;;;2.37;2.03;;;11.30;99.90;;;;;;5050805;28;20526;-50
2021/05/26 01:25:52;;;;;;;3.17;2.10;;;11.30;99.90;;;;;;5052569;28;20416;-49
2021/05/26 01:28:19;;;;;;;2.73;2.53;;;11.30;1.00;;;;;;5051309;28;20847;-54
2021/05/26 01:30:44;;;;;;;3.47;3.27;;;11.30;1.00;;;;;;5052712;28;20826;-52
2021/05/26 01:33:10;;;;;;;4.07;3.77;;;11.30;99.90;;;;;;5050989;28;20534;-54
2021/05/26 01:35:40;;;;;;;3.83;3.07;;;11.30;1.00;;;;;;5052468;28;20548;-54
2021/05/26 01:38:07;;;;;;;3.10;2.90;;;11.30;99.90;;;;;;5049850;28;20196;-54
2021/05/26 01:40:32;;;;;;;3.90;3.60;;;11.30;99.90;;;;;;5051634;28;20958;-55
2021/05/26 01:42:58;;;;;;;4.30;3.60;;;11.30;1.00;;;;;;5057907;28;20439;-51
2021/05/26 01:45:24;;;;;;;5.90;4.40;;;11.30;1.00;;;;;;5050600;28;20218;-52
2021/05/26 01:47:50;;;;;;;3.70;3.50;;;11.20;1.00;;;;;;5051552;28;20206;-52
2021/05/26 01:50:22;;;;;;;4.77;2.87;;;11.10;99.90;;;;;;5051038;28;20213;-52
2021/05/26 01:52:50;;;;;;;2.70;2.50;;;11.00;1.00;;;;;;5049647;28;20427;-52
2021/05/26 01:55:15;;;;;;;2.80;2.60;;;10.90;99.90;;;;;;5049812;28;20436;-51
2021/05/26 01:57:44;;;;;;;2.50;2.30;;;10.90;9.40;;;;;;5049554;28;20436;-53
2021/05/26 02:00:12;;;;;;;3.17;2.87;;;10.80;99.90;;;;;;5049438;28;20567;-55
2021/05/26 02:02:37;;;;;;;3.27;2.70;;;10.80;1.00;;;;;;5054130;28;20980;-54
2021/05/26 02:05:05;;;;;;;2.33;2.13;;;10.70;99.90;;;;;;5049395;28;20444;-52
2021/05/26 02:07:31;;;;;;;1.90;1.80;;;10.60;1.00;;;;;;5048261;28;20269;-52
2021/05/26 02:09:56;;;;;;;1.97;1.87;;;10.50;1.00;;;;;;5049054;28;20541;-51
2021/05/26 02:12:22;;;;;;;2.40;2.20;;;10.40;15.80;;;;;;5050406;28;20193;-52
2021/05/26 02:14:57;;;;;;;1.93;1.80;;;10.30;99.90;;;;;;5048361;28;20186;-52
2021/05/26 02:17:22;;;;;;;2.20;2.00;;;10.20;99.90;;;;;;5050117;28;20959;-52
2021/05/26 02:19:49;;;;;;;1.83;1.73;;;10.10;99.90;;;;;;5048171;28;20471;-55
2021/05/26 02:22:15;;;;;;;2.23;2.10;;;10.00;99.90;;;;;;5048467;28;20261;-54
2021/05/26 02:24:42;;;;;;;2.20;2.00;;;9.90;1.00;;;;;;5048578;28;20540;-52
2021/05/26 02:27:08;;;;;;;2.17;1.97;;;9.90;1.00;;;;;;5049212;28;20530;-55
2021/05/26 02:29:34;;;;;;;2.03;1.70;;;9.80;1.00;;;;;;5048742;28;20443;-52
2021/05/26 02:31:59;;;;;;;2.40;1.80;;;9.70;1.00;;;;;;5042986;28;20948;-53
2021/05/26 02:34:25;;;;;;;2.10;1.90;;;9.70;1.00;;;;;;5038247;28;20189;-50
2021/05/26 02:36:51;;;;;;;2.50;2.00;;;9.60;1.00;;;;;;5048483;28;20201;-55
2021/05/26 02:39:17;;;;;;;2.90;1.90;;;9.60;1.00;;;;;;5048270;28;20985;-52
2021/05/26 02:41:43;;;;;;;2.00;1.80;;;9.60;1.00;;;;;;5048705;28;20232;-48
2021/05/26 02:44:09;;;;;;;2.00;1.90;;;9.50;1.00;;;;;;5047912;28;20222;-53
2021/05/26 02:46:34;;;;;;;1.93;1.83;;;9.50;1.00;;;;;;5048818;28;20428;-51
2021/05/26 02:49:01;;;;;;;3.13;2.00;;;9.50;1.00;;;;;;5048288;28;20451;-50
2021/05/26 02:51:26;;;;;;;2.10;1.90;;;9.50;1.00;;;;;;5048625;28;20248;-51
2021/05/26 02:53:52;;;;;;;1.87;1.77;;;9.40;1.00;;;;;;5048926;28;20448;-52
2021/05/26 02:56:17;;;;;;;2.20;2.00;;;9.50;1.00;;;;;;5048504;28;20186;-52
2021/05/26 02:58:43;;;;;;;2.90;1.90;;;9.40;1.00;;;;;;5048175;28;20182;-54
2021/05/26 03:01:09;;;;;;;2.20;1.90;;;9.40;1.00;;;;;;5048182;28;20197;-53
2021/05/26 03:03:34;;;;;;;2.13;1.93;;;9.30;1.00;;;;;;5053811;28;20439;-51
2021/05/26 03:06:00;;;;;;;1.97;1.60;;;9.30;1.00;;;;;;5045807;28;20185;-52
2021/05/26 03:08:26;;;;;;;1.67;1.57;;;9.30;1.00;;;;;;5048770;28;20201;-55
2021/05/26 03:10:55;;;;;;;2.10;1.80;;;9.30;1.00;;;;;;5048976;28;20185;-51
2021/05/26 03:13:22;;;;;;;2.50;2.30;;;9.30;1.00;;;;;;5045958;28;20288;-53
2021/05/26 03:15:48;;;;;;;2.00;1.90;;;9.30;1.00;;;;;;5048473;28;20443;-51
2021/05/26 03:18:13;;;;;;;3.97;1.87;;;9.30;1.00;;;;;;5047991;28;20457;-54
2021/05/26 03:20:39;;;;;;;2.00;1.90;;;9.30;1.00;;;;;;5047521;28;20214;-55
2021/05/26 03:23:05;;;;;;;2.57;2.10;;;9.30;1.00;;;;;;5048149;28;20546;-50
2021/05/26 03:25:30;;;;;;;2.30;2.03;;;9.40;1.00;;;;;;5047903;28;20185;-49
2021/05/26 03:27:56;;;;;;;2.40;1.73;;;9.40;1.00;;;;;;5052377;28;20471;-51
2021/05/26 03:30:22;;;;;;;2.40;2.20;;;9.50;1.00;;;;;;5047824;28;20232;-51
2021/05/26 03:32:47;;;;;;;2.10;1.93;;;9.50;1.00;;;;;;5047057;28;20184;-54
2021/05/26 03:35:15;;;;;;;3.00;2.30;;;9.60;1.00;;;;;;5048755;28;20216;-54
2021/05/26 03:37:41;;;;;;;2.20;2.10;;;9.70;1.00;;;;;;5047293;28;20578;-54
2021/05/26 03:40:12;;;;;;;2.93;2.00;;;9.80;1.00;;;;;;5048692;28;20617;-53
2021/05/26 03:42:39;;;;;;;2.10;2.00;;;9.90;1.00;;;;;;5046634;28;20447;-52
2021/05/26 03:45:07;;;;;;;3.77;2.37;;;10.00;1.00;;;;;;5051141;28;20472;-54
2021/05/26 03:47:33;;;;;;;1.90;1.80;;;10.10;1.00;;;;;;5047754;28;20558;-51
2021/05/26 03:49:58;;;;;;;3.20;1.60;;;10.10;1.00;;;;;;5047447;28;20523;-55
2021/05/26 03:52:24;;;;;;;2.27;1.97;;;10.20;1.00;;;;;;5047701;28;20582;-52
2021/05/26 03:54:49;;;;;;;2.60;1.70;;;10.10;1.00;;;;;;5048884;28;20186;-54
2021/05/26 03:57:15;;;;;;;2.63;1.83;;;10.20;1.00;;;;;;5046920;28;20186;-51
2021/05/26 03:59:40;;;;;;;3.17;2.00;;;10.20;1.00;;;;;;5048618;28;20213;-54
2021/05/26 04:02:06;;;;;;;1.93;1.83;;;10.20;1.00;;;;;;5053754;28;20219;-54
2021/05/26 04:04:32;;;;;;;2.47;2.27;;;10.20;1.00;;;;;;5048607;28;20186;-52
2021/05/26 04:06:57;;;;;;;2.27;2.07;;;10.20;1.00;;;;;;5047641;28;20190;-50
2021/05/26 04:09:23;;;;;;;2.00;1.83;;;10.20;1.00;;;;;;5048010;28;20424;-52
2021/05/26 04:11:49;;;;;;;3.17;2.10;;;10.20;1.00;;;;;;5045444;28;20640;-52
2021/05/26 04:14:15;;;;;;;2.77;2.03;;;10.20;1.00;;;;;;5048813;28;20182;-50
2021/05/26 04:16:40;;;;;;;2.97;1.80;;;10.20;1.00;;;;;;5046610;28;20427;-54
2021/05/26 04:19:07;;;;;;;2.20;1.97;;;10.30;1.00;;;;;;5048568;28;20217;-53
2021/05/26 04:21:33;;;;;;;2.23;2.03;;;10.30;1.00;;;;;;5040082;28;20278;-57
2021/05/26 04:23:58;;;;;;;2.50;2.30;;;10.30;1.00;;;;;;5038699;28;20491;-51
2021/05/26 04:26:24;;;;;;;2.90;1.80;;;10.40;1.00;;;;;;5037893;28;20439;-54
2021/05/26 04:28:50;;;;;;;3.43;2.10;;;10.40;1.00;;;;;;5038356;28;20200;-53
2021/05/26 04:31:16;;;;;;;2.27;2.07;;;10.50;1.00;;;;;;5036950;28;20797;-53
2021/05/26 04:33:42;;;;;;;2.03;1.93;;;10.50;1.00;;;;;;5037531;28;20182;-54
2021/05/26 04:36:08;;;;;;;2.23;2.03;;;10.50;1.00;;;;;;5038522;28;20508;-53
2021/05/26 04:38:34;;;;;;;2.30;1.83;;;10.50;1.00;;;;;;5036427;28;20953;-54
2021/05/26 04:41:00;;;;;;;2.50;2.10;;;10.60;1.00;;;;;;5045437;28;20460;-56
2021/05/26 04:43:29;;;;;;;2.43;2.20;;;10.70;1.00;;;;;;5048014;28;20859;-53
2021/05/26 04:45:55;;;;;;;2.20;2.00;;;10.80;1.00;;;;;;5047774;28;20739;-52
2021/05/26 04:48:21;;;;;;;2.57;2.37;;;11.00;1.00;;;;;;5049795;28;20445;-53
2021/05/26 04:50:47;;;;;;;2.93;1.93;;;11.10;1.00;;;;;;5052007;28;20730;-53
2021/05/26 04:53:12;;;;;;;3.90;2.57;;;11.20;1.00;;;;;;5042473;28;20190;-53
2021/05/26 04:55:38;;;;;;;2.20;2.10;;;11.30;1.00;;;;;;5052086;28;20771;-51
2021/05/26 04:58:06;;;;;;;3.63;2.27;;;11.40;99.90;;;;;;5049892;28;20499;-52
2021/05/26 05:00:32;;;;;;;2.40;2.20;;;11.60;99.90;;;;;;5049857;28;20213;-53
2021/05/26 05:02:58;;;;;;;2.27;2.10;;;11.60;99.90;;;;;;5054224;28;20432;-51
2021/05/26 05:05:25;;;;;;;3.23;3.00;;;11.60;99.90;;;;;;5050817;28;20417;-53
2021/05/26 05:07:50;;;;;;;3.40;3.10;;;11.70;99.90;;;;;;5050999;28;20197;-52
2021/05/26 05:10:16;;;;;;;7.93;3.00;;;11.80;99.90;;;;;;5050118;28;20421;-55
2021/05/26 05:12:42;;;;;;;2.57;2.10;;;11.80;1.00;;;;;;5050306;28;20208;-52
2021/05/26 05:15:08;;;;;;;3.37;2.50;;;11.90;1.00;;;;;;5051314;28;20189;-51
2021/05/26 05:17:34;;;;;;;2.97;2.63;;;11.90;1.00;;;;;;5051014;28;20186;-55
2021/05/26 05:19:59;;;;;;;2.60;2.40;;;11.90;1.00;;;;;;5051258;28;20475;-54
2021/05/26 05:22:25;;;;;;;2.50;2.30;;;11.90;1.00;;;;;;5051535;28;20177;-53
2021/05/26 05:24:50;;;;;;;3.83;2.60;;;12.00;1.00;;;;;;5051135;28;20201;-54
2021/05/26 05:27:16;;;;;;;3.03;2.50;;;12.10;1.00;;;;;;5050808;28;20264;-55
2021/05/26 05:29:41;;;;;;;2.63;2.43;;;12.10;99.90;;;;;;5051236;28;20192;-51
2021/05/26 05:32:07;;;;;;;5.60;2.80;;;12.20;99.90;;;;;;5050265;28;20186;-53
2021/05/26 05:34:33;;;;;;;4.27;2.70;;;12.30;99.90;;;;;;5053177;28;20194;-51
2021/05/26 05:36:58;;;;;;;3.87;3.40;;;12.40;1.00;;;;;;5050029;28;20632;-51
2021/05/26 05:39:24;;;;;;;3.03;2.83;;;12.50;1.00;;;;;;5050626;28;20237;-54
2021/05/26 05:41:49;;;;;;;3.20;3.00;;;12.70;1.00;;;;;;5050453;28;20174;-52
2021/05/26 05:44:15;;;;;;;3.80;3.50;;;12.80;99.90;;;;;;5050179;28;20234;-54
2021/05/26 05:46:41;;;;;;;4.57;3.43;;;12.90;99.90;;;;;;5049843;28;20273;-55
2021/05/26 05:49:06;;;;;;;5.40;2.60;;;13.00;1.00;;;;;;5050661;28;20571;-52
2021/05/26 05:51:32;;;;;;;3.37;2.50;;;13.10;99.90;;;;;;5050206;28;20277;-52
2021/05/26 05:53:58;;;;;;;3.27;2.50;;;13.30;99.90;;;;;;5050912;28;20530;-51
2021/05/26 05:56:23;;;;;;;4.70;2.47;;;13.30;1.00;;;;;;5049867;28;20429;-54
2021/05/26 05:58:49;;;;;;;2.40;2.20;;;13.30;99.90;;;;;;5049838;28;20179;-54
2021/05/26 06:01:14;;;;;;;2.73;2.40;;;13.60;1.00;;;;;;5049854;28;20189;-54
2021/05/26 06:03:40;;;;;;;2.40;2.20;;;13.70;99.90;;;;;;5045697;28;20193;-50
2021/05/26 06:06:06;;;;;;;2.57;2.37;;;13.70;1.00;;;;;;5050606;28;20189;-50
2021/05/26 06:08:31;;;;;;;3.50;2.80;;;13.80;28.20;;;;;;5049963;28;20177;-55
2021/05/26 06:10:57;;;;;;;2.37;2.10;;;13.90;1.00;;;;;;5050281;28;20192;-52
2021/05/26 06:13:22;;;;;;;4.03;2.30;;;13.90;1.00;;;;;;5049577;28;20220;-52
2021/05/26 06:15:48;;;;;;;3.17;2.47;;;14.00;1.00;;;;;;5050598;28;20181;-49
2021/05/26 06:18:16;;;;;;;2.30;2.20;;;13.90;99.90;;;;;;5049534;28;20222;-50
2021/05/26 06:20:41;;;;;;;3.07;2.70;;;14.00;1.00;;;;;;5050398;28;20700;-54
2021/05/26 06:23:07;;;;;;;5.20;2.57;;;14.10;99.90;;;;;;5049648;28;20435;-52
2021/05/26 06:25:32;;;;;;;2.60;2.40;;;14.20;99.90;;;;;;5050179;28;20830;-52
2021/05/26 06:27:58;;;;;;;2.97;2.50;;;14.10;99.90;;;;;;5049201;28;20194;-50
2021/05/26 06:30:24;;;;;;;2.60;2.40;;;14.10;99.90;;;;;;5050042;28;20199;-52
2021/05/26 06:32:49;;;;;;;2.20;2.10;;;14.20;99.90;;;;;;5049135;28;20203;-55
2021/05/26 06:35:15;;;;;;;3.50;2.63;;;14.30;99.90;;;;;;5056037;28;20205;-55
2021/05/26 06:37:42;;;;;;;2.50;2.30;;;14.30;99.90;;;;;;5049158;28;20189;-53
2021/05/26 06:40:08;;;;;;;2.90;2.60;;;14.30;99.90;;;;;;5049401;28;20266;-53
2021/05/26 06:42:33;;;;;;;2.83;2.63;;;14.30;99.90;;;;;;5051701;28;20513;-52
2021/05/26 06:44:59;;;;;;;4.80;2.50;;;14.30;99.90;;;;;;5049880;28;20600;-51
2021/05/26 06:47:24;;;;;;;2.77;2.50;;;14.30;41.60;;;;;;5049758;28;20194;-52
2021/05/26 06:49:50;;;;;;;3.03;2.70;;;14.40;73.00;;;;;;5049166;28;20211;-52
2021/05/26 06:52:15;;;;;;;2.70;2.50;;;14.30;78.70;;;;;;5049743;28;20200;-55
2021/05/26 06:54:41;;;;;;;4.03;2.70;;;14.30;99.90;;;;;;5049624;28;20217;-52
2021/05/26 06:57:06;;;;;;;2.90;2.70;;;14.30;60.40;;;;;;5047911;28;20531;-53
2021/05/26 06:59:32;;;;;;;2.37;2.10;;;14.20;55.80;;;;;;5048083;28;20206;-52
2021/05/26 07:01:58;;;;;;;4.10;2.40;;;14.10;14.10;;;;;;5048869;28;20188;-54
2021/05/26 07:04:24;;;;;;;3.40;2.40;;;14.10;21.40;;;;;;5049450;28;20524;-51
2021/05/26 07:06:49;;;;;;;2.30;2.13;;;14.10;17.30;;;;;;5048710;28;20176;-55
2021/05/26 07:09:15;;;;;;;3.30;2.50;;;14.10;39.00;;;;;;5049631;28;20413;-53
2021/05/26 07:11:41;;;;;;;2.63;2.37;;;14.00;19.30;;;;;;5058042;28;20189;-51
2021/05/26 07:14:06;;;;;;;2.80;2.60;;;14.00;1.00;;;;;;5049518;28;20229;-54
2021/05/26 07:16:32;;;;;;;2.20;2.00;;;14.00;12.40;;;;;;5048087;28;20518;-53
2021/05/26 07:18:59;;;;;;;3.37;2.30;;;14.10;12.00;;;;;;5048527;28;20218;-52
2021/05/26 07:21:26;;;;;;;4.57;2.80;;;14.20;1.00;;;;;;5046657;28;20182;-50
2021/05/26 07:23:52;;;;;;;2.30;2.20;;;14.30;20.90;;;;;;5049464;28;20418;-52
2021/05/26 07:26:17;;;;;;;2.83;2.47;;;14.30;1.00;;;;;;5048999;28;20432;-52
2021/05/26 07:28:43;;;;;;;3.03;2.70;;;14.50;1.00;;;;;;5047583;28;21168;-54
2021/05/26 07:31:09;;;;;;;2.77;2.57;;;14.50;1.00;;;;;;5047737;28;20201;-53
2021/05/26 07:33:34;;;;;;;2.50;2.30;;;14.50;1.00;;;;;;5050157;28;20320;-55
2021/05/26 07:36:00;;;;;;;2.90;2.70;;;14.70;1.00;;;;;;5051675;28;20247;-55
2021/05/26 07:38:25;;;;;;;3.80;3.00;;;15.10;1.00;;;;;;5045403;28;20190;-55
2021/05/26 07:40:51;;;;;;;3.13;2.83;;;15.50;1.00;;;;;;5048879;28;20238;-54
2021/05/26 07:43:17;;;;;;;3.67;2.90;;;15.70;1.00;;;;;;5048188;28;20183;-54
2021/05/26 07:45:43;;;;;;;2.83;2.60;;;15.80;1.00;;;;;;5048708;28;20231;-52
2021/05/26 07:48:08;;;;;;;4.60;2.20;;;16.00;1.00;;;;;;5048484;28;20508;-52
2021/05/26 07:50:35;;;;;;;3.10;2.80;;;16.20;1.00;;;;;;5048956;28;20180;-56
2021/05/26 07:53:02;;;;;;;6.37;2.53;;;16.20;1.00;;;;;;5048941;28;20179;-52
2021/05/26 07:55:27;;;;;;;3.50;2.50;;;16.10;1.00;;;;;;5048419;28;20452;-56
2021/05/26 07:57:53;;;;;;;5.53;2.90;;;16.00;1.00;;;;;;5048818;28;21155;-50
2021/05/26 08:00:19;;;;;;;3.03;2.70;;;16.00;1.00;;;;;;5041459;28;20211;-50
2021/05/26 08:02:45;;;;;;;7.37;2.93;;;15.90;1.00;;;;;;5048824;28;20194;-55
2021/05/26 08:05:11;;;;;;;4.33;3.33;;;15.80;1.00;;;;;;5048342;28;20510;-56
2021/05/26 08:07:37;;;;;;;3.37;2.70;;;15.90;1.00;;;;;;5048927;28;20409;-53
2021/05/26 08:10:05;;;;;;;2.90;2.60;;;15.80;1.00;;;;;;5048810;28;20424;-50
2021/05/26 08:12:31;;;;;;;3.10;2.60;;;15.70;1.00;;;;;;5046671;28;20194;-53
2021/05/26 08:14:57;;;;;;;4.00;2.70;;;15.70;1.00;;;;;;5048442;28;20422;-53
2021/05/26 08:17:23;;;;;;;3.73;2.93;;;15.60;1.00;;;;;;5047954;28;20438;-52
2021/05/26 08:19:48;;;;;;;2.73;2.53;;;15.60;1.00;;;;;;5048659;28;20697;-54
2021/05/26 08:22:14;;;;;;;5.50;3.03;;;15.60;1.00;;;;;;5048634;28;20826;-52
2021/05/26 08:24:39;;;;;;;3.23;2.60;;;15.70;1.00;;;;;;5052284;28;20309;-53
2021/05/26 08:27:05;;;;;;;6.33;2.53;;;15.70;99.90;;;;;;5051682;28;20240;-53
2021/05/26 08:29:33;;;;;;;2.90;2.37;;;15.70;99.90;;;;;;5052697;28;20239;-55
2021/05/26 08:31:58;;;;;;;2.97;2.20;;;15.80;99.90;;;;;;5054222;28;20194;-54
2021/05/26 08:34:24;;;;;;;3.00;2.80;;;15.80;1.00;;;;;;5060410;28;20419;-52
2021/05/26 08:36:50;;;;;;;3.10;2.87;;;16.00;99.90;;;;;;5053125;28;20538;-55
2021/05/26 08:39:15;;;;;;;2.70;2.50;;;16.20;99.90;;;;;;5052242;28;20463;-55
2021/05/26 08:41:45;;;;;;;2.60;2.50;;;16.30;99.90;;;;;;5051189;28;20806;-53
2021/05/26 08:44:13;;;;;;;2.90;2.70;;;16.10;99.90;;;;;;5051538;28;20591;-51
2021/05/26 08:46:40;;;;;;;2.60;2.40;;;16.00;99.90;;;;;;5051123;28;20926;-52
2021/05/26 08:49:06;;;;;;;2.60;2.50;;;16.00;99.90;;;;;;5051693;28;20780;-53
2021/05/26 08:51:32;;;;;;;2.30;2.10;;;16.00;99.90;;;;;;5051647;28;20472;-52
2021/05/26 08:53:58;;;;;;;2.83;2.60;;;16.00;99.90;;;;;;5051146;28;20179;-54
2021/05/26 08:56:24;;;;;;;2.23;2.13;;;16.00;99.90;;;;;;5051582;28;20442;-54
2021/05/26 08:58:49;;;;;;;2.63;2.53;;;15.90;99.90;;;;;;5051507;28;20179;-55
2021/05/26 09:01:15;;;;;;;2.83;2.33;;;15.90;99.90;;;;;;5051923;28;20269;-55
2021/05/26 09:03:40;;;;;;;2.70;2.60;;;15.70;99.90;;;;;;5051442;28;20191;-55
2021/05/26 09:06:13;;;;;;;2.40;2.30;;;15.60;99.90;;;;;;5051393;28;20187;-54
2021/05/26 09:08:48;;;;;;;3.53;2.47;;;15.70;99.90;;;;;;5059182;28;20185;-53
2021/05/26 09:11:15;;;;;;;3.60;3.37;;;15.70;99.90;;;;;;5050877;28;20485;-56
2021/05/26 09:13:43;;;;;;;2.40;2.20;;;15.80;99.90;;;;;;5051618;28;20417;-55
2021/05/26 09:16:27;;;;;;;2.90;2.70;;;15.70;99.90;;;;;;5050233;28;20471;-54
2021/05/26 09:19:00;;;;;;;3.47;3.17;;;15.60;99.90;;;;;;5047005;28;20433;-52
2021/05/26 09:21:35;;;;;;;7.10;3.37;;;15.30;1.00;;;;;;5059049;28;20443;-53
2021/05/26 09:24:01;;;;;;;5.37;3.90;;;15.10;70.00;;;;;;5053326;28;20431;-54
2021/05/26 09:26:47;;;;;;;4.83;4.10;;;15.00;41.70;;;;;;5050667;28;20795;-53
2021/05/26 09:29:12;;;;;;;6.10;4.07;;;14.70;99.90;;;;;;5038943;28;20250;-52
2021/05/26 09:31:38;;;;;;;5.23;4.70;;;14.50;99.90;;;;;;5050201;28;20432;-53
2021/05/26 09:34:03;;;;;;;4.60;4.30;;;14.40;99.90;;;;;;5055592;28;20187;-49
2021/05/26 09:36:29;;;;;;;5.83;4.60;;;14.50;99.90;;;;;;5056022;28;20184;-54
2021/05/26 09:39:04;;;;;;;4.60;4.20;;;14.50;99.90;;;;;;5051240;28;20181;-56
2021/05/26 09:41:35;;;;;;;3.77;3.53;;;14.60;1.00;;;;;;5050347;28;20623;-54
2021/05/26 09:44:03;;;;;;;3.63;3.33;;;14.50;1.00;;;;;;5048908;28;20476;-53
2021/05/26 09:46:33;;;;;;;3.10;2.80;;;14.70;99.90;;;;;;5048479;28;20538;-54
2021/05/26 09:49:13;;;;;;;3.40;3.10;;;15.10;99.90;;;;;;5050478;28;20464;-51
2021/05/26 09:51:42;;;;;;;3.40;3.10;;;15.30;1.00;;;;;;5049606;28;20485;-53
2021/05/26 09:54:07;;;;;;;2.80;2.70;;;15.50;1.00;;;;;;5050941;28;20420;-56
2021/05/26 09:56:33;;;;;;;3.10;2.90;;;15.90;1.00;;;;;;5051729;28;20442;-51
2021/05/26 09:59:02;;;;;;;3.50;3.20;;;16.20;1.00;;;;;;5050627;28;20188;-55
2021/05/26 10:01:28;;;;;;;2.97;2.73;;;16.50;1.00;;;;;;5049265;28;20271;-50
2021/05/26 10:03:54;;;;;;;3.07;2.77;;;16.70;1.00;;;;;;5050555;28;20420;-53
2021/05/26 10:06:21;;;;;;;3.43;3.13;;;16.70;1.00;;;;;;5049880;28;20422;-54
2021/05/26 10:08:47;;;;;;;3.40;3.10;;;16.70;1.00;;;;;;5050458;28;20197;-49
2021/05/26 10:11:15;;;;;;;3.53;3.33;;;16.70;1.00;;;;;;5048507;28;20435;-55
2021/05/26 10:13:43;;;;;;;3.30;2.97;;;16.60;1.00;;;;;;5049724;28;20434;-51
2021/05/26 10:16:09;;;;;;;3.67;3.10;;;16.80;1.00;;;;;;5050353;28;20419;-54
2021/05/26 10:18:36;;;;;;;3.70;3.40;;;16.80;1.00;;;;;;5049629;28;20449;-54
2021/05/26 10:21:02;;;;;;;3.50;3.30;;;16.70;1.00;;;;;;5049345;28;20540;-52
2021/05/26 10:23:28;;;;;;;4.53;3.30;;;16.90;1.00;;;;;;5049090;28;20477;-56
2021/05/26 10:25:54;;;;;;;3.30;2.97;;;16.80;1.00;;;;;;5050364;28;20454;-53
2021/05/26 10:28:31;;;;;;;3.20;3.00;;;16.90;1.00;;;;;;5048102;28;20466;-52
2021/05/26 10:30:58;;;;;;;3.53;2.87;;;16.90;1.00;;;;;;5046312;28;20438;-54
2021/05/26 10:33:50;;;;;;;3.10;2.80;;;17.00;1.00;;;;;;5050337;28;20432;-54
2021/05/26 10:36:16;;;;;;;3.03;2.93;;;16.90;1.00;;;;;;5048639;28;20497;-52
2021/05/26 10:38:59;;;;;;;4.33;3.03;;;16.80;1.00;;;;;;5049837;28;20427;-53
2021/05/26 10:41:49;;;;;;;3.33;3.13;;;16.60;1.00;;;;;;5051695;28;20282;-50
2021/05/26 10:44:14;;;;;;;4.20;3.07;;;16.50;1.00;;;;;;5047518;28;20474;-50
2021/05/26 10:46:41;;;;;;;3.30;3.07;;;16.60;1.00;;;;;;5048773;28;20435;-54
2021/05/26 10:49:12;;;;;;;3.07;2.77;;;16.30;1.00;;;;;;5048840;28;20186;-53
2021/05/26 10:51:53;;;;;;;4.60;2.60;;;16.10;1.00;;;;;;5049521;28;20431;-54
2021/05/26 10:54:40;;;;;;;2.97;2.77;;;15.90;1.00;;;;;;5048811;28;20528;-53
2021/05/26 10:57:09;;;;;;;3.40;3.10;;;15.80;1.00;;;;;;5048625;28;20422;-50
2021/05/26 10:59:39;;;;;;;3.50;3.20;;;15.90;1.00;;;;;;5049367;28;20461;-52
2021/05/26 11:04:35;;;;;;;2.90;2.70;;;15.70;1.00;;;;;;5049603;28;20910;-55
2021/05/26 11:07:20;;;;;;;2.80;2.60;;;15.80;1.00;;;;;;5054593;28;20185;-53
2021/05/26 11:10:09;;;;;;;2.70;2.50;;;15.90;1.00;;;;;;5049358;28;20532;-52
2021/05/26 11:12:56;;;;;;;2.90;2.80;;;16.10;1.00;;;;;;5041629;28;20426;-50
2021/05/26 11:15:41;;;;;;;3.00;2.80;;;16.20;1.00;;;;;;5047117;28;20445;-54
2021/05/26 11:18:13;;;;;;;3.00;2.70;;;16.30;1.00;;;;;;5048372;28;20432;-53
2021/05/26 11:20:38;;;;;;;3.30;3.00;;;16.40;1.00;;;;;;5046870;28;20476;-54
2021/05/26 11:23:14;;;;;;;3.30;2.60;;;16.40;1.00;;;;;;5048095;28;20442;-50
2021/05/26 11:25:57;;;;;;;2.90;2.20;;;16.50;1.00;;;;;;5049338;28;20565;-51
2021/05/26 11:28:30;;;;;;;2.53;2.30;;;16.60;1.00;;;;;;5037641;28;20417;-53
2021/05/26 11:31:04;;;;;;;3.10;2.90;;;16.60;1.00;;;;;;5035183;28;20479;-53
2021/05/26 11:33:30;;;;;;;3.07;2.77;;;16.40;1.00;;;;;;5048803;28;20409;-49
2021/05/26 11:36:02;;;;;;;2.70;2.50;;;16.40;1.00;;;;;;5048404;28;20990;-54
2021/05/26 11:38:27;;;;;;;2.57;2.47;;;16.40;1.00;;;;;;5049309;28;20192;-54
2021/05/26 11:40:53;;;;;;;2.90;2.70;;;16.40;1.00;;;;;;5048404;28;20796;-53
2021/05/26 11:43:22;;;;;;;3.20;3.00;;;16.40;1.00;;;;;;5052418;28;20689;-52
2021/05/26 11:46:10;;;;;;;3.27;3.07;;;16.30;1.00;;;;;;5047298;28;20542;-53
2021/05/26 11:48:36;;;;;;;3.30;3.10;;;16.30;1.00;;;;;;5048953;28;20423;-53
2021/05/26 11:51:03;;;;;;;4.23;2.80;;;16.20;1.00;;;;;;5048226;28;20523;-54
2021/05/26 11:53:28;;;;;;;3.43;2.73;;;16.10;1.00;;;;;;5047847;28;20439;-50
2021/05/26 11:56:02;;;;;;;2.80;2.60;;;16.00;1.00;;;;;;5053954;28;20455;-55
2021/05/26 11:58:29;;;;;;;4.10;2.63;;;15.90;1.00;;;;;;5052244;28;20219;-51
2021/05/26 12:01:04;;;;;;;2.77;2.57;;;15.90;1.00;;;;;;5050394;28;20647;-53
2021/05/26 12:03:31;;;;;;;2.87;2.67;;;15.80;1.00;;;;;;5051382;28;20429;-55
2021/05/26 12:05:57;;;;;;;2.80;2.70;;;15.80;1.00;;;;;;5051932;28;20513;-53
2021/05/26 12:08:31;;;;;;;2.83;2.67;;;15.80;1.00;;;;;;5053016;28;20420;-55
2021/05/26 12:10:58;;;;;;;4.70;2.50;;;15.70;1.00;;;;;;5052672;28;20432;-53
2021/05/26 12:13:26;;;;;;;2.30;2.20;;;15.50;1.00;;;;;;5051847;28;20420;-54
2021/05/26 12:15:52;;;;;;;2.43;2.23;;;15.50;1.00;;;;;;5051893;28;20995;-50
2021/05/26 12:18:18;;;;;;;2.20;2.10;;;15.70;1.00;;;;;;5051473;28;20422;-54
2021/05/26 12:20:52;;;;;;;2.90;2.70;;;15.80;99.90;;;;;;5051952;28;20467;-52
2021/05/26 12:23:35;;;;;;;2.67;2.50;;;15.90;63.40;;;;;;5052819;28;20472;-55
2021/05/26 12:26:37;;;;;;;3.50;3.30;;;16.20;1.00;;;;;;5051455;28;20981;-51
2021/05/26 12:29:09;;;;;;;2.60;2.50;;;16.20;1.00;;;;;;5030318;28;20969;-54
2021/05/26 12:31:35;;;;;;;2.80;2.60;;;16.20;1.00;;;;;;5040397;28;20435;-52
2021/05/26 12:34:02;;;;;;;2.93;2.70;;;16.10;1.00;;;;;;5051960;28;20509;-55
2021/05/26 12:36:29;;;;;;;3.30;3.00;;;16.10;1.00;;;;;;5052183;28;20510;-53
2021/05/26 12:39:05;;;;;;;2.67;2.57;;;16.10;1.00;;;;;;5051701;28;20434;-51
2021/05/26 12:41:34;;;;;;;3.90;3.07;;;16.10;1.00;;;;;;5052467;28;20414;-55
2021/05/26 12:44:24;;;;;;;3.10;2.90;;;16.30;42.20;;;;;;5060496;28;20818;-51
2021/05/26 12:46:51;;;;;;;4.00;3.63;;;16.30;1.00;;;;;;5052487;28;20400;-50
2021/05/26 12:49:41;;;;;;;3.40;3.20;;;16.40;1.00;;;;;;5045347;28;20445;-54
2021/05/26 12:52:09;;;;;;;3.00;2.70;;;16.30;99.90;;;;;;5051558;28;21280;-53
2021/05/26 12:54:46;;;;;;;6.07;3.23;;;16.40;1.00;;;;;;5051105;28;20897;-54
2021/05/26 12:57:14;;;;;;;2.50;2.27;;;16.50;99.90;;;;;;5051414;28;20400;-54
2021/05/26 12:59:42;;;;;;;2.43;2.33;;;16.80;99.90;;;;;;5048379;28;20468;-55